createdAt,value
2022-08-24T00:01:56.256Z,5.27
2022-08-24T00:04:25.260Z,5.97
2022-08-24T00:06:54.661Z,5.17
2022-08-24T00:09:22.737Z,5.63
2022-08-24T00:11:52.052Z,5.93
2022-08-24T00:14:20.314Z,6.63
2022-08-24T00:16:48.500Z,5.53
2022-08-24T00:19:17.111Z,5.40
2022-08-24T00:21:45.079Z,5.87
2022-08-24T00:24:14.698Z,5.63
2022-08-24T00:26:42.834Z,5.53
2022-08-24T00:29:11.071Z,6.40
2022-08-24T00:31:39.174Z,6.03
2022-08-24T00:34:07.854Z,4.90
2022-08-24T00:36:36.416Z,5.70
2022-08-24T00:39:05.319Z,6.00
2022-08-24T00:41:35.159Z,8.17
2022-08-24T00:44:05.635Z,5.80
2022-08-24T00:46:43.571Z,6.73
2022-08-24T00:49:21.447Z,6.10
2022-08-24T00:51:55.824Z,5.07
2022-08-24T00:54:26.900Z,6.67
2022-08-24T00:56:59.917Z,6.57
2022-08-24T00:59:32.565Z,5.87
2022-08-24T01:02:14.999Z,5.80
2022-08-24T01:04:52.591Z,6.07
2022-08-24T01:07:22.743Z,6.13
2022-08-24T01:09:51.194Z,6.67
2022-08-24T01:12:21.099Z,6.53
2022-08-24T01:14:49.635Z,6.57
2022-08-24T01:17:38.810Z,6.30
2022-08-24T01:20:09.637Z,5.60
2022-08-24T01:22:54.982Z,5.90
2022-08-24T01:25:27.079Z,6.10
2022-08-24T01:28:00.233Z,5.83
2022-08-24T01:30:35.998Z,6.20
2022-08-24T01:33:07.068Z,5.60
2022-08-24T01:35:36.953Z,5.67
2022-08-24T01:38:08.639Z,7.40
2022-08-24T01:40:43.459Z,5.70
2022-08-24T01:43:12.684Z,6.53
2022-08-24T01:45:41.430Z,5.07
2022-08-24T01:48:09.647Z,5.47
2022-08-24T01:50:42.016Z,5.47
2022-08-24T01:53:10.524Z,5.53
2022-08-24T01:55:40.930Z,5.60
2022-08-24T01:58:08.988Z,5.77
2022-08-24T02:00:39.145Z,5.63
2022-08-24T02:03:07.504Z,5.90
2022-08-24T02:05:36.487Z,5.97
2022-08-24T02:08:05.033Z,5.67
2022-08-24T02:10:35.229Z,5.30
2022-08-24T02:13:06.029Z,5.50
2022-08-24T02:15:38.651Z,5.63
2022-08-24T02:18:07.009Z,6.40
2022-08-24T02:20:43.520Z,5.80
2022-08-24T02:23:11.933Z,5.27
2022-08-24T02:25:42.383Z,5.10
2022-08-24T02:28:11.721Z,6.10
2022-08-24T02:30:42.293Z,6.07
2022-08-24T02:33:10.341Z,6.07
2022-08-24T02:35:38.761Z,5.63
2022-08-24T02:38:06.925Z,6.40
2022-08-24T02:40:35.033Z,6.27
2022-08-24T02:43:03.465Z,5.90
2022-08-24T02:45:33.140Z,6.83
2022-08-24T02:48:02.443Z,5.60
2022-08-24T02:50:30.412Z,6.53
2022-08-24T02:52:58.384Z,6.00
2022-08-24T02:55:26.515Z,6.53
2022-08-24T02:57:54.452Z,6.33
2022-08-24T03:00:25.090Z,6.00
2022-08-24T03:02:54.989Z,6.27
2022-08-24T03:05:23.662Z,5.83
2022-08-24T03:07:52.298Z,5.63
2022-08-24T03:10:21.197Z,6.00
2022-08-24T03:12:49.678Z,6.23
2022-08-24T03:15:21.684Z,6.80
2022-08-24T03:17:50.280Z,5.77
2022-08-24T03:20:22.122Z,6.13
2022-08-24T03:22:52.598Z,6.17
2022-08-24T03:25:24.522Z,6.57
2022-08-24T03:27:53.200Z,6.50
2022-08-24T03:30:23.389Z,6.10
2022-08-24T03:32:52.501Z,6.07
2022-08-24T03:35:22.850Z,7.10
2022-08-24T03:37:52.012Z,6.33
2022-08-24T03:40:22.942Z,6.43
2022-08-24T03:42:54.793Z,7.13
2022-08-24T03:45:25.091Z,6.33
2022-08-24T03:47:53.515Z,5.90
2022-08-24T03:50:26.457Z,6.40
2022-08-24T03:52:54.958Z,5.83
2022-08-24T03:55:24.421Z,5.50
2022-08-24T03:57:55.115Z,6.53
2022-08-24T04:00:23.154Z,7.20
2022-08-24T04:02:51.203Z,5.90
2022-08-24T04:05:19.308Z,6.30
2022-08-24T04:07:48.605Z,7.20
2022-08-24T04:10:16.568Z,6.60
2022-08-24T04:12:45.561Z,6.63
2022-08-24T04:15:14.732Z,6.67
2022-08-24T04:17:42.671Z,7.27
2022-08-24T04:20:12.627Z,7.33
2022-08-24T04:22:40.567Z,6.67
2022-08-24T04:25:11.556Z,6.10
2022-08-24T04:27:40.938Z,6.07
2022-08-24T04:30:14.043Z,6.67
2022-08-24T04:32:43.213Z,6.50
2022-08-24T04:35:11.724Z,5.83
2022-08-24T04:37:39.668Z,6.57
2022-08-24T04:40:09.502Z,5.90
2022-08-24T04:42:39.838Z,5.63
2022-08-24T04:45:12.381Z,6.60
2022-08-24T04:47:40.330Z,5.83
2022-08-24T04:50:09.246Z,6.47
2022-08-24T04:52:37.198Z,6.87
2022-08-24T04:55:06.427Z,7.03
2022-08-24T04:57:35.980Z,6.60
2022-08-24T05:00:09.200Z,6.23
2022-08-24T05:02:44.534Z,6.80
2022-08-24T05:05:15.560Z,5.70
2022-08-24T05:07:44.976Z,5.73
2022-08-24T05:10:14.721Z,6.03
2022-08-24T05:12:45.290Z,5.20
2022-08-24T05:15:14.629Z,5.40
2022-08-24T05:17:42.948Z,5.80
2022-08-24T05:20:19.121Z,6.20
2022-08-24T05:22:47.073Z,6.00
2022-08-24T05:25:15.153Z,5.53
2022-08-24T05:27:43.483Z,5.73
2022-08-24T05:30:12.977Z,6.40
2022-08-24T05:32:44.962Z,6.00
2022-08-24T05:35:13.144Z,5.67
2022-08-24T05:37:43.982Z,5.90
2022-08-24T05:40:15.327Z,5.47
2022-08-24T05:42:43.779Z,5.37
2022-08-24T05:45:12.794Z,6.17
2022-08-24T05:47:42.175Z,5.93
2022-08-24T05:50:12.809Z,5.30
2022-08-24T05:52:41.946Z,6.00
2022-08-24T05:55:10.858Z,5.57
2022-08-24T05:57:39.072Z,5.83
2022-08-24T06:00:09.669Z,6.17
2022-08-24T06:02:37.752Z,6.20
2022-08-24T06:05:08.337Z,5.63
2022-08-24T06:07:36.301Z,6.80
2022-08-24T06:10:32.935Z,6.57
2022-08-24T06:12:55.053Z,5.83
2022-08-24T06:15:23.332Z,6.13
2022-08-24T06:17:52.699Z,6.47
2022-08-24T06:20:22.197Z,5.77
2022-08-24T06:22:50.138Z,6.87
2022-08-24T06:25:37.802Z,8.73
2022-08-24T06:28:05.806Z,6.10
2022-08-24T06:30:34.438Z,6.47
2022-08-24T06:33:06.939Z,6.13
2022-08-24T06:35:36.326Z,6.93
2022-08-24T06:38:04.748Z,6.80
2022-08-24T06:40:33.474Z,6.70
2022-08-24T06:43:03.865Z,6.40
2022-08-24T06:45:32.813Z,5.80
2022-08-24T06:48:00.851Z,6.20
2022-08-24T06:50:29.337Z,5.80
2022-08-24T06:52:58.693Z,5.20
2022-08-24T06:55:27.303Z,5.67
2022-08-24T06:57:57.310Z,6.00
2022-08-24T07:00:25.909Z,5.63
2022-08-24T07:02:53.972Z,5.43
2022-08-24T07:05:22.007Z,5.90
2022-08-24T07:07:49.962Z,6.83
2022-08-24T07:10:23.042Z,4.90
2022-08-24T07:12:53.222Z,6.03
2022-08-24T07:15:21.275Z,5.90
2022-08-24T07:17:49.268Z,4.97
2022-08-24T07:20:17.872Z,5.60
2022-08-24T07:22:46.063Z,5.37
2022-08-24T07:25:14.464Z,5.90
2022-08-24T07:27:43.796Z,5.20
2022-08-24T07:30:27.926Z,5.37
2022-08-24T07:32:57.506Z,5.30
2022-08-24T07:35:26.686Z,5.10
2022-08-24T07:37:56.367Z,5.03
2022-08-24T07:40:27.542Z,5.20
2022-08-24T07:42:58.948Z,4.53
2022-08-24T07:45:28.374Z,5.00
2022-08-24T07:47:56.523Z,4.30
2022-08-24T07:50:24.838Z,6.37
2022-08-24T07:52:52.914Z,4.77
2022-08-24T07:55:20.997Z,4.17
2022-08-24T07:57:48.942Z,4.07
2022-08-24T08:00:21.044Z,4.00
2022-08-24T08:02:50.305Z,4.10
2022-08-24T08:05:22.599Z,4.57
2022-08-24T08:07:52.123Z,4.87
2022-08-24T08:10:21.804Z,4.53
2022-08-24T08:12:49.786Z,4.73
2022-08-24T08:15:19.327Z,3.90
2022-08-24T08:17:47.698Z,3.70
2022-08-24T08:20:25.211Z,4.80
2022-08-24T08:23:11.200Z,6.00
2022-08-24T08:25:39.237Z,3.60
2022-08-24T08:28:18.616Z,4.97
2022-08-24T08:30:55.591Z,4.47
2022-08-24T08:33:24.563Z,4.87
2022-08-24T08:35:57.240Z,4.57
2022-08-24T08:38:25.510Z,4.17
2022-08-24T08:41:07.325Z,3.63
2022-08-24T08:43:43.952Z,4.40
2022-08-24T08:46:28.578Z,3.70
2022-08-24T08:49:09.197Z,2.87
2022-08-24T08:52:17.113Z,3.33
2022-08-24T08:55:14.550Z,2.97
2022-08-24T08:57:58.142Z,3.90
2022-08-24T09:00:31.425Z,3.13
2022-08-24T09:03:27.476Z,2.50
2022-08-24T09:06:26.642Z,3.17
2022-08-24T09:09:11.944Z,4.53
2022-08-24T09:11:50.583Z,2.57
2022-08-24T09:14:36.523Z,2.83
2022-08-24T09:17:19.481Z,4.43
2022-08-24T09:20:15.696Z,2.60
2022-08-24T09:22:47.775Z,3.20
2022-08-24T09:25:26.311Z,2.70
2022-08-24T09:28:07.285Z,3.87
2022-08-24T09:30:50.260Z,3.03
2022-08-24T09:33:23.106Z,2.23
2022-08-24T09:36:08.861Z,3.10
2022-08-24T09:38:57.301Z,2.80
2022-08-24T09:41:55.259Z,2.43
2022-08-24T09:44:50.888Z,3.10
2022-08-24T09:47:52.376Z,3.47
2022-08-24T09:50:41.166Z,3.07
2022-08-24T09:53:44.970Z,2.77
2022-08-24T09:56:27.856Z,3.10
2022-08-24T09:59:12.479Z,4.63
2022-08-24T10:01:50.050Z,2.20
2022-08-24T10:04:37.610Z,2.30
2022-08-24T10:07:13.439Z,3.43
2022-08-24T10:10:03.005Z,3.10
2022-08-24T10:12:56.553Z,4.07
2022-08-24T10:15:32.304Z,2.00
2022-08-24T10:18:17.604Z,3.50
2022-08-24T10:20:58.718Z,2.20
2022-08-24T10:23:42.306Z,2.10
2022-08-24T10:26:22.868Z,2.47
2022-08-24T10:29:20.427Z,2.47
2022-08-24T10:32:01.105Z,2.47
2022-08-24T10:34:45.487Z,1.73
2022-08-24T10:37:33.728Z,2.00
2022-08-24T10:40:21.650Z,2.57
2022-08-24T10:43:35.620Z,2.43
2022-08-24T10:46:36.435Z,2.37
2022-08-24T10:50:02.473Z,2.83
2022-08-24T10:53:07.885Z,2.50
2022-08-24T10:55:36.820Z,2.77
2022-08-24T10:58:28.665Z,5.23
2022-08-24T11:00:57.438Z,3.70
2022-08-24T11:03:28.041Z,3.03
2022-08-24T11:05:57.994Z,2.57
2022-08-24T11:08:28.244Z,2.80
2022-08-24T11:11:08.623Z,2.73
2022-08-24T11:13:40.154Z,3.00
2022-08-24T11:16:08.259Z,2.67
2022-08-24T11:18:51.425Z,3.70
2022-08-24T11:21:47.926Z,3.03
2022-08-24T11:24:40.426Z,3.77
2022-08-24T11:27:27.678Z,3.13
2022-08-24T11:30:01.315Z,6.07
2022-08-24T11:32:37.585Z,3.40
2022-08-24T11:35:09.640Z,2.83
2022-08-24T11:37:40.177Z,3.50
2022-08-24T11:40:09.801Z,3.40
2022-08-24T11:42:50.133Z,3.63
2022-08-24T11:45:28.742Z,2.57
2022-08-24T11:48:27.227Z,2.87
2022-08-24T11:51:03.165Z,2.67
2022-08-24T11:56:25.535Z,2.87
2022-08-24T11:58:59.904Z,2.83
2022-08-24T12:01:33.919Z,3.43
2022-08-24T12:04:13.630Z,2.67
2022-08-24T12:06:56.030Z,2.00
2022-08-24T12:09:50.860Z,2.47
2022-08-24T12:12:26.204Z,2.83
2022-08-24T12:15:01.779Z,1.80
2022-08-24T12:17:37.991Z,2.70
2022-08-24T12:20:17.690Z,2.43
2022-08-24T12:22:46.341Z,2.33
2022-08-24T12:25:29.579Z,2.53
2022-08-24T12:27:59.526Z,2.20
2022-08-24T12:30:28.296Z,2.43
2022-08-24T12:33:09.326Z,2.30
2022-08-24T12:35:53.960Z,2.20
2022-08-24T12:38:29.529Z,3.53
2022-08-24T12:41:08.817Z,2.30
2022-08-24T12:43:50.677Z,2.40
2022-08-24T12:46:22.875Z,1.90
2022-08-24T12:48:58.166Z,1.80
2022-08-24T12:51:31.110Z,3.10
2022-08-24T12:54:26.753Z,2.03
2022-08-24T12:57:29.320Z,2.20
2022-08-24T13:00:02.714Z,2.57
2022-08-24T13:02:36.588Z,2.57
2022-08-24T13:05:15.451Z,2.03
2022-08-24T13:07:46.454Z,2.13
2022-08-24T13:10:33.868Z,2.47
2022-08-24T13:13:40.316Z,3.37
2022-08-24T13:16:09.897Z,2.33
2022-08-24T13:19:19.921Z,2.33
2022-08-24T13:21:54.292Z,1.80
2022-08-24T13:24:46.486Z,2.50
2022-08-24T13:27:47.668Z,3.50
2022-08-24T13:30:30.711Z,3.63
2022-08-24T13:33:06.502Z,2.50
2022-08-24T13:35:56.163Z,2.67
2022-08-24T13:38:59.326Z,2.27
2022-08-24T13:41:45.221Z,2.47
2022-08-24T13:44:23.291Z,2.40
2022-08-24T13:47:02.076Z,2.20
2022-08-24T13:49:49.326Z,3.00
2022-08-24T13:52:26.630Z,2.27
2022-08-24T13:55:27.250Z,2.33
2022-08-24T13:58:13.819Z,2.33
2022-08-24T14:00:49.998Z,2.20
2022-08-24T14:03:52.265Z,2.50
2022-08-24T14:06:30.855Z,1.97
2022-08-24T14:09:16.337Z,1.83
2022-08-24T14:12:07.256Z,1.90
2022-08-24T14:15:03.464Z,2.20
2022-08-24T14:17:53.924Z,2.43
2022-08-24T14:20:43.293Z,2.07
2022-08-24T14:23:29.459Z,2.40
2022-08-24T14:26:31.354Z,1.70
2022-08-24T14:29:32.063Z,1.70
2022-08-24T14:32:35.912Z,2.23
2022-08-24T14:35:39.106Z,2.43
2022-08-24T14:38:30.820Z,2.10
2022-08-24T14:41:07.528Z,2.20
2022-08-24T14:43:53.555Z,3.43
2022-08-24T14:46:29.152Z,3.43
2022-08-24T14:49:11.063Z,1.80
2022-08-24T14:51:54.510Z,4.53
2022-08-24T14:54:32.763Z,2.20
2022-08-24T14:57:21.329Z,2.07
2022-08-24T15:00:02.470Z,2.80
2022-08-24T15:03:16.874Z,1.80
2022-08-24T15:06:25.215Z,1.93
2022-08-24T15:08:48.318Z,3.10
2022-08-24T15:11:22.424Z,1.73
2022-08-24T15:13:55.413Z,2.00
2022-08-24T15:16:28.721Z,2.50
2022-08-24T15:19:04.540Z,2.63
2022-08-24T15:21:45.781Z,2.63
2022-08-24T15:27:04.148Z,2.50
2022-08-24T15:29:34.610Z,1.63
2022-08-24T15:32:07.163Z,2.70
2022-08-24T15:34:42.733Z,1.97
2022-08-24T15:37:13.592Z,3.63
2022-08-24T15:39:41.517Z,2.47
2022-08-24T15:42:14.101Z,2.33
2022-08-24T15:44:45.067Z,2.63
2022-08-24T15:47:24.246Z,2.60
2022-08-24T15:49:56.149Z,3.50
2022-08-24T15:52:51.674Z,3.23
2022-08-24T15:55:44.222Z,2.03
2022-08-24T15:58:34.954Z,1.93
2022-08-24T16:01:39.315Z,3.13
2022-08-24T16:04:10.320Z,1.83
2022-08-24T16:06:45.126Z,2.40
2022-08-24T16:09:36.498Z,2.50
2022-08-24T16:12:07.935Z,2.20
2022-08-24T16:14:39.815Z,2.40
2022-08-24T16:17:27.469Z,2.80
2022-08-24T16:19:59.610Z,5.83
2022-08-24T16:22:32.242Z,3.00
2022-08-24T16:25:22.124Z,3.50
2022-08-24T16:27:56.478Z,2.70
2022-08-24T16:30:28.039Z,2.80
2022-08-24T16:32:58.265Z,4.17
2022-08-24T16:35:26.298Z,3.57
2022-08-24T16:37:55.376Z,2.83
2022-08-24T16:40:25.550Z,2.87
2022-08-24T16:42:55.273Z,4.97
2022-08-24T16:45:24.217Z,2.90
2022-08-24T16:47:52.192Z,3.03
2022-08-24T16:50:22.312Z,2.70
2022-08-24T16:52:55.571Z,2.73
2022-08-24T16:55:25.078Z,2.60
2022-08-24T16:57:53.060Z,2.70
2022-08-24T17:00:22.098Z,2.70
2022-08-24T17:02:50.631Z,4.53
2022-08-24T17:05:18.893Z,2.73
2022-08-24T17:07:47.296Z,2.80
2022-08-24T17:10:17.789Z,2.50
2022-08-24T17:12:48.373Z,3.10
2022-08-24T17:15:17.241Z,3.20
2022-08-24T17:17:53.934Z,2.57
2022-08-24T17:20:22.086Z,2.70
2022-08-24T17:22:50.027Z,2.87
2022-08-24T17:25:18.078Z,2.40
2022-08-24T17:27:48.618Z,2.90
2022-08-24T17:30:18.461Z,3.77
2022-08-24T17:32:48.051Z,2.63
2022-08-24T17:35:16.846Z,2.47
2022-08-24T17:37:44.882Z,2.40
2022-08-24T17:40:15.915Z,2.47
2022-08-24T17:42:51.795Z,2.00
2022-08-24T17:45:23.350Z,3.53
2022-08-24T17:47:52.413Z,2.27
2022-08-24T17:50:21.701Z,2.73
2022-08-24T17:52:49.589Z,1.93
2022-08-24T17:55:25.420Z,2.30
2022-08-24T17:57:53.561Z,2.60
2022-08-24T18:00:23.044Z,3.23
2022-08-24T18:02:50.987Z,2.20
2022-08-24T18:05:19.130Z,3.43
2022-08-24T18:07:53.551Z,2.70
2022-08-24T18:10:27.935Z,2.23
2022-08-24T18:12:57.821Z,2.20
2022-08-24T18:15:35.845Z,2.20
2022-08-24T18:18:09.825Z,2.00
2022-08-24T18:20:41.316Z,2.13
2022-08-24T18:23:11.222Z,2.00
2022-08-24T18:25:45.248Z,2.20
2022-08-24T18:28:14.922Z,2.37
2022-08-24T18:30:46.688Z,2.83
2022-08-24T18:33:14.990Z,3.10
2022-08-24T18:35:42.970Z,2.80
2022-08-24T18:38:10.954Z,2.67
2022-08-24T18:40:39.301Z,2.57
2022-08-24T18:43:08.163Z,2.60
2022-08-24T18:45:36.667Z,3.03
2022-08-24T18:48:06.611Z,2.67
2022-08-24T18:50:37.667Z,2.30
2022-08-24T18:53:09.048Z,2.30
2022-08-24T18:55:38.962Z,2.90
2022-08-24T18:58:07.472Z,2.50
2022-08-24T19:00:35.622Z,2.77
2022-08-24T19:03:08.114Z,2.40
2022-08-24T19:05:36.418Z,2.80
2022-08-24T19:08:06.595Z,3.27
2022-08-24T19:10:37.919Z,2.60
2022-08-24T19:13:10.725Z,1.83
2022-08-24T19:15:40.277Z,2.37
2022-08-24T19:18:11.275Z,2.70
2022-08-24T19:20:45.825Z,2.80
2022-08-24T19:23:19.763Z,2.70
2022-08-24T19:25:48.163Z,2.77
2022-08-24T19:28:16.337Z,2.63
2022-08-24T19:30:46.673Z,2.63
2022-08-24T19:33:24.166Z,2.37
2022-08-24T19:35:52.391Z,3.00
2022-08-24T19:38:24.784Z,2.90
2022-08-24T19:40:54.666Z,4.70
2022-08-24T19:43:23.749Z,2.30
2022-08-24T19:46:05.357Z,4.83
2022-08-24T19:48:37.254Z,2.53
2022-08-24T19:51:06.975Z,2.60
2022-08-24T19:53:37.694Z,3.13
2022-08-24T19:56:06.650Z,3.60
2022-08-24T19:58:40.371Z,2.70
2022-08-24T20:01:13.212Z,3.13
2022-08-24T20:03:42.654Z,2.60
2022-08-24T20:06:11.337Z,3.07
2022-08-24T20:08:39.908Z,3.13
2022-08-24T20:11:09.309Z,2.60
2022-08-24T20:13:37.526Z,2.53
2022-08-24T20:16:06.408Z,2.90
2022-08-24T20:18:39.483Z,3.30
2022-08-24T20:21:09.174Z,2.73
2022-08-24T20:23:37.757Z,2.80
2022-08-24T20:26:08.234Z,2.40
2022-08-24T20:28:41.443Z,2.53
2022-08-24T20:31:10.392Z,2.33
2022-08-24T20:33:38.423Z,5.63
2022-08-24T20:36:09.396Z,3.90
2022-08-24T20:38:37.473Z,4.13
2022-08-24T20:41:05.689Z,3.37
2022-08-24T20:43:34.050Z,2.63
2022-08-24T20:46:02.682Z,2.93
2022-08-24T20:48:33.264Z,4.90
2022-08-24T20:51:01.595Z,3.33
2022-08-24T20:53:30.944Z,2.90
2022-08-24T20:56:02.515Z,2.70
2022-08-24T20:58:30.574Z,2.80
2022-08-24T21:00:58.564Z,3.27
2022-08-24T21:03:26.634Z,3.20
2022-08-24T21:05:54.750Z,3.20
2022-08-24T21:08:25.807Z,2.90
2022-08-24T21:10:55.339Z,3.20
2022-08-24T21:13:23.430Z,3.37
2022-08-24T21:15:52.254Z,3.43
2022-08-24T21:18:20.878Z,3.33
2022-08-24T21:21:03.927Z,3.90
2022-08-24T21:23:33.879Z,3.63
2022-08-24T21:26:05.996Z,3.03
2022-08-24T21:28:34.989Z,3.43
2022-08-24T21:31:06.194Z,4.80
2022-08-24T21:33:52.316Z,4.53
2022-08-24T21:36:23.326Z,3.53
2022-08-24T21:38:52.048Z,3.60
2022-08-24T21:41:23.524Z,3.30
2022-08-24T21:43:52.270Z,3.50
2022-08-24T21:46:20.270Z,3.70
2022-08-24T21:48:48.340Z,3.77
2022-08-24T21:51:16.348Z,3.37
2022-08-24T21:53:44.407Z,4.03
2022-08-24T21:56:12.402Z,5.73
2022-08-24T21:58:42.123Z,3.13
2022-08-24T22:01:10.139Z,2.67
2022-08-24T22:03:40.334Z,3.13
2022-08-24T22:06:09.570Z,3.50
2022-08-24T22:08:38.066Z,3.67
2022-08-24T22:11:06.731Z,3.30
2022-08-24T22:13:35.657Z,3.40
2022-08-24T22:16:05.619Z,3.57
2022-08-24T22:18:34.157Z,3.97
2022-08-24T22:21:05.942Z,3.10
2022-08-24T22:23:33.978Z,3.70
2022-08-24T22:26:04.364Z,3.60
2022-08-24T22:28:32.684Z,3.90
2022-08-24T22:31:00.877Z,3.07
2022-08-24T22:33:30.584Z,3.50
2022-08-24T22:35:58.539Z,2.93
2022-08-24T22:38:26.509Z,3.37
2022-08-24T22:40:55.696Z,3.60
2022-08-24T22:43:43.701Z,4.50
2022-08-24T22:46:11.687Z,3.60
2022-08-24T22:48:41.254Z,3.83
2022-08-24T22:51:10.505Z,3.60
2022-08-24T22:53:38.994Z,6.70
2022-08-24T22:56:15.350Z,4.97
2022-08-24T22:58:43.308Z,5.00
2022-08-24T23:01:11.457Z,3.90
2022-08-24T23:03:41.393Z,4.40
2022-08-24T23:06:15.770Z,4.03
2022-08-24T23:08:44.000Z,4.40
2022-08-24T23:11:13.129Z,4.10
2022-08-24T23:13:41.861Z,4.03
2022-08-24T23:16:11.995Z,3.40
2022-08-24T23:19:00.462Z,4.30
2022-08-24T23:21:28.817Z,4.03
2022-08-24T23:23:59.707Z,4.60
2022-08-24T23:26:28.444Z,3.90
2022-08-24T23:28:56.424Z,4.40
2022-08-24T23:31:27.610Z,3.73
2022-08-24T23:33:57.612Z,3.67
2022-08-24T23:36:27.366Z,3.33
2022-08-24T23:39:00.167Z,3.83
2022-08-24T23:41:35.317Z,3.10
2022-08-24T23:44:07.779Z,5.30
2022-08-24T23:46:39.440Z,3.20
2022-08-24T23:49:09.613Z,3.53
2022-08-24T23:51:37.993Z,3.87
2022-08-24T23:54:09.874Z,4.60
2022-08-24T23:56:43.550Z,3.90
2022-08-24T23:59:21.927Z,3.70
